Time;durP1;ratioP1;P1;durP2;ratioP2;P2;SDS_P1;SDS_P2;PMS_P1;PMS_P2;Temp;Humidity;BMP_temperature;BMP_pressure;BME280_temperature;BME280_humidity;BME280_pressure;Samples;Min_cycle;Max_cycle;Signal;HPM_P1;HPM_P2
2021/04/18 00:00:18;;;;;;;;;;;8.00;77.90;;;;;;5093510;28;19931;-77
2021/04/18 00:02:47;;;;;;;;;;;8.00;77.40;;;;;;5089472;28;19919;-77
2021/04/18 00:05:15;;;;;;;;;;;8.00;76.40;;;;;;5090505;28;19927;-77
2021/04/18 00:07:40;;;;;;;;;;;8.00;76.90;;;;;;5083609;28;19935;-77
2021/04/18 00:10:07;;;;;;;;;;;8.00;77.90;;;;;;5086638;28;20308;-78
2021/04/18 00:12:32;;;;;;;;;;;8.00;78.10;;;;;;5075304;28;19989;-77
2021/04/18 00:14:58;;;;;;;;;;;8.00;77.50;;;;;;5075905;28;20043;-77
2021/04/18 00:17:23;;;;;;;;;;;8.00;77.90;;;;;;5075131;28;19916;-77
2021/04/18 00:19:49;;;;;;;;;;;8.00;78.20;;;;;;5078834;28;19931;-77
2021/04/18 00:22:14;;;;;;;;;;;8.00;77.30;;;;;;5089948;28;19920;-77
2021/04/18 00:24:40;;;;;;;;;;;8.10;78.30;;;;;;5085357;28;20485;-77
2021/04/18 00:27:08;;;;;;;;;;;8.10;78.60;;;;;;5074264;28;19967;-77
2021/04/18 00:29:35;;;;;;;;;;;8.10;78.50;;;;;;5073939;28;19947;-77
2021/04/18 00:32:03;;;;;;;;;;;8.10;78.50;;;;;;5090000;28;19930;-77
2021/04/18 00:34:29;;;;;;;;;;;8.10;78.30;;;;;;5075260;28;19920;-77
2021/04/18 00:36:56;;;;;;;;;;;8.20;78.80;;;;;;5077143;28;20060;-78
2021/04/18 00:39:22;;;;;;;;;;;8.10;78.50;;;;;;5074180;28;19917;-77
2021/04/18 00:41:47;;;;;;;;;;;8.10;77.90;;;;;;5074373;28;20364;-77
2021/04/18 00:44:15;;;;;;;;;;;8.10;79.30;;;;;;5074843;28;20349;-77
2021/04/18 00:46:41;;;;;;;;;;;8.10;78.70;;;;;;5075169;28;19920;-77
2021/04/18 00:49:06;;;;;;;;;;;8.10;79.10;;;;;;5089537;28;19930;-77
2021/04/18 00:51:37;;;;;;;;;;;8.10;79.50;;;;;;5075872;28;19943;-77
2021/04/18 00:54:05;;;;;;;;;;;8.10;78.20;;;;;;5075706;28;19944;-78
2021/04/18 00:56:33;;;;;;;;;;;8.00;78.60;;;;;;5093860;28;19923;-77
2021/04/18 00:59:00;;;;;;;;;;;8.00;79.30;;;;;;5085980;28;19924;-78
2021/04/18 01:01:28;;;;;;;;;;;8.00;79.50;;;;;;5090376;28;19974;-77
2021/04/18 01:03:54;;;;;;;;;;;8.00;78.90;;;;;;5097295;28;19966;-77
2021/04/18 01:06:19;;;;;;;;;;;8.00;79.30;;;;;;5099109;28;19927;-77
2021/04/18 01:08:47;;;;;;;;;;;8.00;79.40;;;;;;5091923;28;19919;-77
2021/04/18 01:11:13;;;;;;;;;;;8.00;79.00;;;;;;5093571;28;20387;-77
2021/04/18 01:13:38;;;;;;;;;;;8.00;78.80;;;;;;5078157;28;19924;-77
2021/04/18 01:16:04;;;;;;;;;;;8.00;80.10;;;;;;5077722;28;19947;-77
2021/04/18 01:18:31;;;;;;;;;;;8.10;80.70;;;;;;5078905;28;20365;-77
2021/04/18 01:21:04;;;;;;;;;;;8.10;80.40;;;;;;5094397;28;20328;-77
2021/04/18 01:23:29;;;;;;;;;;;8.10;80.30;;;;;;5095048;28;20361;-78
2021/04/18 01:25:55;;;;;;;;;;;8.10;80.50;;;;;;5082950;28;19936;-77
2021/04/18 01:28:23;;;;;;;;;;;8.10;79.90;;;;;;5092951;27;19935;-78
2021/04/18 01:30:48;;;;;;;;;;;8.10;79.90;;;;;;5080720;28;19966;-77
2021/04/18 01:33:14;;;;;;;;;;;8.10;80.20;;;;;;5078091;28;20011;-77
2021/04/18 01:35:40;;;;;;;;;;;8.10;80.20;;;;;;5080755;28;20471;-77
2021/04/18 01:38:08;;;;;;;;;;;8.10;80.00;;;;;;5080075;28;19931;-77
2021/04/18 01:40:36;;;;;;;;;;;8.10;80.60;;;;;;5068275;28;20361;-77
2021/04/18 01:43:02;;;;;;;;;;;8.20;80.50;;;;;;5078261;28;19916;-78
2021/04/18 01:45:28;;;;;;;;;;;8.20;80.80;;;;;;5089819;28;20242;-78
2021/04/18 01:47:53;;;;;;;;;;;8.20;81.70;;;;;;5063636;28;19934;-77
2021/04/18 01:50:21;;;;;;;;;;;8.10;80.90;;;;;;5078037;28;20238;-77
2021/04/18 01:52:49;;;;;;;;;;;8.10;80.40;;;;;;5083864;27;19931;-77
2021/04/18 01:55:15;;;;;;;;;;;8.10;81.70;;;;;;5094307;28;19913;-77
2021/04/18 01:57:40;;;;;;;;;;;8.00;80.70;;;;;;5085647;28;20396;-77
2021/04/18 02:00:10;;;;;;;;;;;8.00;82.00;;;;;;5078482;28;19920;-77
2021/04/18 02:02:36;;;;;;;;;;;8.10;81.90;;;;;;5075356;28;21954;-77
2021/04/18 02:05:01;;;;;;;;;;;8.00;82.00;;;;;;5077687;28;19985;-77
2021/04/18 02:07:27;;;;;;;;;;;8.00;81.00;;;;;;5087626;28;19920;-77
2021/04/18 02:09:54;;;;;;;;;;;8.10;82.00;;;;;;5091707;28;19911;-78
2021/04/18 02:12:22;;;;;;;;;;;8.10;82.30;;;;;;5097358;28;20420;-78
2021/04/18 02:14:48;;;;;;;;;;;8.00;81.60;;;;;;4744947;27;10000351;-77
2021/04/18 02:17:13;;;;;;;;;;;8.00;82.00;;;;;;5094432;28;19915;-77
2021/04/18 02:19:43;;;;;;;;;;;8.10;81.30;;;;;;5095386;28;19980;-78
2021/04/18 02:22:11;;;;;;;;;;;8.10;81.90;;;;;;5079687;28;21737;-77
2021/04/18 02:24:42;;;;;;;;;;;8.10;81.10;;;;;;5074432;28;19920;-77
2021/04/18 02:27:09;;;;;;;;;;;8.10;81.20;;;;;;5077538;28;19997;-77
2021/04/18 02:29:35;;;;;;;;;;;8.00;81.10;;;;;;5078591;28;19973;-77
2021/04/18 02:32:00;;;;;;;;;;;8.00;81.10;;;;;;5078458;28;19919;-77
2021/04/18 02:34:31;;;;;;;;;;;8.10;81.00;;;;;;5108589;27;19970;-77
2021/04/18 02:36:56;;;;;;;;;;;8.10;82.50;;;;;;5083101;28;19916;-77
2021/04/18 02:39:22;;;;;;;;;;;8.10;82.50;;;;;;5078421;28;19925;-78
2021/04/18 02:41:51;;;;;;;;;;;8.10;82.80;;;;;;5075965;28;20005;-77
2021/04/18 02:44:16;;;;;;;;;;;8.20;82.20;;;;;;5076819;28;19966;-78
2021/04/18 02:46:42;;;;;;;;;;;8.20;81.70;;;;;;5079245;28;20795;-78
2021/04/18 02:49:07;;;;;;;;;;;8.20;82.40;;;;;;5077365;28;19925;-78
2021/04/18 02:51:33;;;;;;;;;;;8.20;81.60;;;;;;5076617;28;20278;-78
2021/04/18 02:54:00;;;;;;;;;;;8.20;83.00;;;;;;5076245;28;19931;-77
2021/04/18 02:56:28;;;;;;;;;;;8.20;81.70;;;;;;5075960;28;19927;-78
2021/04/18 02:58:55;;;;;;;;;;;8.20;82.00;;;;;;5077822;28;19916;-77
2021/04/18 03:01:26;;;;;;;;;;;8.30;81.90;;;;;;5075653;28;19916;-75
2021/04/18 03:03:53;;;;;;;;;;;8.20;81.70;;;;;;5075236;28;19969;-78
2021/04/18 03:06:24;;;;;;;;;;;8.20;81.70;;;;;;5076657;28;21818;-78
2021/04/18 03:08:49;;;;;;;;;;;8.30;81.70;;;;;;5078651;28;19934;-77
2021/04/18 03:11:17;;;;;;;;;;;8.20;82.70;;;;;;5075271;28;20261;-78
2021/04/18 03:13:44;;;;;;;;;;;8.20;83.10;;;;;;5075558;28;19916;-78
2021/04/18 03:16:12;;;;;;;;;;;8.30;83.10;;;;;;5075887;28;20054;-78
2021/04/18 03:18:40;;;;;;;;;;;8.20;82.60;;;;;;5075858;28;19920;-77
2021/04/18 03:21:05;;;;;;;;;;;8.20;82.40;;;;;;5082244;28;19956;-77
2021/04/18 03:23:31;;;;;;;;;;;8.20;82.10;;;;;;5078511;28;21565;-77
2021/04/18 03:25:56;;;;;;;;;;;8.20;83.20;;;;;;5075851;28;20086;-77
2021/04/18 03:28:24;;;;;;;;;;;8.20;83.50;;;;;;5073820;28;19924;-77
2021/04/18 03:30:52;;;;;;;;;;;8.20;83.70;;;;;;5077257;28;19970;-77
2021/04/18 03:33:17;;;;;;;;;;;8.20;83.40;;;;;;5073743;28;19959;-77
2021/04/18 03:35:43;;;;;;;;;;;8.20;83.30;;;;;;5076075;28;20416;-77
2021/04/18 03:38:09;;;;;;;;;;;8.20;83.00;;;;;;5076031;28;19920;-77
2021/04/18 03:40:38;;;;;;;;;;;8.20;83.60;;;;;;5072933;28;19919;-77
2021/04/18 03:43:03;;;;;;;;;;;8.10;85.30;;;;;;5074393;28;20471;-77
2021/04/18 03:45:31;;;;;;;;;;;8.10;84.00;;;;;;5075148;28;19921;-77
2021/04/18 03:47:57;;;;;;;;;;;8.10;84.00;;;;;;5075519;28;19935;-77
2021/04/18 03:50:22;;;;;;;;;;;8.10;84.50;;;;;;5074974;28;19916;-77
2021/04/18 03:52:55;;;;;;;;;;;8.10;84.20;;;;;;5074771;28;19990;-78
2021/04/18 03:55:22;;;;;;;;;;;8.10;87.00;;;;;;5076389;28;19974;-78
2021/04/18 03:57:48;;;;;;;;;;;8.10;87.20;;;;;;5082093;28;19929;-78
2021/04/18 04:00:16;;;;;;;;;;;8.10;87.90;;;;;;5074283;28;19913;-78
2021/04/18 04:02:45;;;;;;;;;;;8.10;87.30;;;;;;5073810;28;19949;-79
2021/04/18 04:05:10;;;;;;;;;;;8.10;91.00;;;;;;5074468;28;19951;-80
2021/04/18 04:07:36;;;;;;;;;;;8.00;94.40;;;;;;5089620;28;19950;-81
2021/04/18 04:10:04;;;;;;;;;;;8.10;95.50;;;;;;5087611;28;19911;-81
2021/04/18 04:12:32;;;;;;;;;;;8.00;96.30;;;;;;5083538;28;19916;-80
2021/04/18 04:14:58;;;;;;;;;;;7.90;99.90;;;;;;5090130;28;19912;-81
2021/04/18 04:17:26;;;;;;;;;;;7.90;99.90;;;;;;5089674;28;20341;-81
2021/04/18 04:19:53;;;;;;;;;;;7.90;99.90;;;;;;5090760;28;19916;-81
2021/04/18 04:22:24;;;;;;;;;;;7.90;99.90;;;;;;5082459;28;20219;-80
2021/04/18 04:24:52;;;;;;;;;;;8.00;99.60;;;;;;5084984;28;19973;-80
2021/04/18 04:27:20;;;;;;;;;;;8.00;98.60;;;;;;5096307;28;19917;-80
2021/04/18 04:29:48;;;;;;;;;;;8.10;98.10;;;;;;5086090;28;21462;-80
2021/04/18 04:32:16;;;;;;;;;;;7.90;99.90;;;;;;5073668;28;20001;-81
2021/04/18 04:34:41;;;;;;;;;;;7.80;99.90;;;;;;5118926;27;20309;-81
2021/04/18 04:37:07;;;;;;;;;;;7.80;99.90;;;;;;5087175;28;19965;-81
2021/04/18 04:39:35;;;;;;;;;;;7.80;99.90;;;;;;5074582;28;19920;-81
2021/04/18 04:42:01;;;;;;;;;;;7.80;99.90;;;;;;5077605;28;19920;-80
2021/04/18 04:44:28;;;;;;;;;;;7.70;99.90;;;;;;5078457;28;19916;-80
2021/04/18 04:46:54;;;;;;;;;;;7.80;99.90;;;;;;5081286;28;19930;-80
2021/04/18 04:49:21;;;;;;;;;;;7.80;99.90;;;;;;5079735;28;19924;-80
2021/04/18 04:51:48;;;;;;;;;;;7.80;99.90;;;;;;5079193;28;19939;-79
2021/04/18 04:54:16;;;;;;;;;;;7.80;99.90;;;;;;5078929;28;19916;-79
2021/04/18 04:56:42;;;;;;;;;;;7.80;99.90;;;;;;5064156;28;19927;-80
2021/04/18 04:59:12;;;;;;;;;;;7.80;99.90;;;;;;5078437;28;19955;-79
2021/04/18 05:01:38;;;;;;;;;;;7.80;99.90;;;;;;5084179;28;20403;-79
2021/04/18 05:04:03;;;;;;;;;;;7.90;99.90;;;;;;5078582;28;19927;-79
2021/04/18 05:06:29;;;;;;;;;;;7.80;99.90;;;;;;5080999;28;19916;-78
2021/04/18 05:08:57;;;;;;;;;;;7.70;99.90;;;;;;5094301;27;19924;-79
2021/04/18 05:11:25;;;;;;;;;;;7.60;99.90;;;;;;5078134;28;19931;-80
2021/04/18 05:13:53;;;;;;;;;;;7.60;99.90;;;;;;5081527;28;19920;-79
2021/04/18 05:16:18;;;;;;;;;;;7.60;99.90;;;;;;5076884;28;19974;-79
2021/04/18 05:18:44;;;;;;;;;;;7.70;99.90;;;;;;5075729;28;19920;-78
2021/04/18 05:21:10;;;;;;;;;;;7.70;99.90;;;;;;5078260;28;19920;-78
2021/04/18 05:23:36;;;;;;;;;;;7.60;99.90;;;;;;5077149;28;19916;-79
2021/04/18 05:26:01;;;;;;;;;;;7.60;99.90;;;;;;5078318;28;19924;-79
2021/04/18 05:28:30;;;;;;;;;;;7.70;99.90;;;;;;5077238;28;20411;-79
2021/04/18 05:31:00;;;;;;;;;;;7.70;99.90;;;;;;5077487;28;19920;-79
2021/04/18 05:33:28;;;;;;;;;;;7.80;99.90;;;;;;5079701;28;20004;-76
2021/04/18 05:35:53;;;;;;;;;;;7.80;99.90;;;;;;5078214;28;19923;-77
2021/04/18 05:38:19;;;;;;;;;;;7.80;99.90;;;;;;5077843;28;19920;-76
2021/04/18 05:40:45;;;;;;;;;;;7.90;99.90;;;;;;5077877;28;19916;-77
2021/04/18 05:43:11;;;;;;;;;;;8.00;99.90;;;;;;5078975;28;19919;-76
2021/04/18 05:45:42;;;;;;;;;;;8.00;99.90;;;;;;5079622;28;19951;-76
2021/04/18 05:48:08;;;;;;;;;;;8.00;99.90;;;;;;5094276;27;19923;-76
2021/04/18 05:50:36;;;;;;;;;;;8.10;99.90;;;;;;5077886;28;19928;-76
2021/04/18 05:53:01;;;;;;;;;;;8.10;99.90;;;;;;5076642;28;21762;-76
2021/04/18 05:55:27;;;;;;;;;;;8.20;99.90;;;;;;5077637;28;19947;-76
2021/04/18 05:57:55;;;;;;;;;;;8.10;99.90;;;;;;5078980;28;19920;-76
2021/04/18 06:00:20;;;;;;;;;;;8.20;99.90;;;;;;5077421;28;19931;-76
2021/04/18 06:02:49;;;;;;;;;;;8.20;99.90;;;;;;5079937;28;19972;-76
2021/04/18 06:05:19;;;;;;;;;;;8.30;99.90;;;;;;5092992;28;19930;-76
2021/04/18 06:07:45;;;;;;;;;;;8.30;99.90;;;;;;5091262;28;19920;-76
2021/04/18 06:10:13;;;;;;;;;;;8.30;99.90;;;;;;5090580;28;19916;-76
2021/04/18 06:12:41;;;;;;;;;;;8.30;99.90;;;;;;5093804;28;19912;-76
2021/04/18 06:15:09;;;;;;;;;;;8.30;99.90;;;;;;5095897;28;19916;-76
2021/04/18 06:17:34;;;;;;;;;;;8.30;99.90;;;;;;5084692;28;19916;-78
2021/04/18 06:20:00;;;;;;;;;;;8.30;99.90;;;;;;5084216;28;19932;-77
2021/04/18 06:22:26;;;;;;;;;;;8.40;99.90;;;;;;5077695;28;21416;-76
2021/04/18 06:24:51;;;;;;;;;;;8.40;99.90;;;;;;5076478;28;20862;-76
2021/04/18 06:27:17;;;;;;;;;;;8.40;99.90;;;;;;5076243;28;19997;-76
2021/04/18 06:29:42;;;;;;;;;;;8.40;99.90;;;;;;5077182;28;19955;-75
2021/04/18 06:32:10;;;;;;;;;;;8.40;99.90;;;;;;5077986;28;19926;-75
2021/04/18 06:34:38;;;;;;;;;;;8.40;99.90;;;;;;5077183;28;19928;-75
2021/04/18 06:37:09;;;;;;;;;;;8.50;99.90;;;;;;5093015;27;20362;-74
2021/04/18 06:39:39;;;;;;;;;;;8.40;99.90;;;;;;5091927;27;19928;-73
2021/04/18 06:42:05;;;;;;;;;;;8.40;99.90;;;;;;5076497;28;19928;-72
2021/04/18 06:44:30;;;;;;;;;;;8.50;99.90;;;;;;5082046;28;19920;-72
2021/04/18 06:46:59;;;;;;;;;;;8.40;99.90;;;;;;5075779;28;19920;-72
2021/04/18 06:49:25;;;;;;;;;;;8.30;99.90;;;;;;5112042;27;19981;-71
2021/04/18 06:51:52;;;;;;;;;;;8.30;99.90;;;;;;5092332;28;19956;-71
2021/04/18 06:54:17;;;;;;;;;;;8.30;99.90;;;;;;5092007;28;20005;-71
2021/04/18 06:56:43;;;;;;;;;;;8.30;99.90;;;;;;5092770;28;19985;-70
2021/04/18 06:59:08;;;;;;;;;;;8.30;99.90;;;;;;5081912;28;19920;-70
2021/04/18 07:01:34;;;;;;;;;;;8.30;99.90;;;;;;5076033;28;19917;-70
2021/04/18 07:04:15;;;;;;;;;;;8.30;99.90;;;;;;5091554;27;20822;-71
2021/04/18 07:06:44;;;;;;;;;;;8.30;99.90;;;;;;5078381;28;19928;-71
2021/04/18 07:09:12;;;;;;;;;;;8.30;99.90;;;;;;5092117;27;20383;-71
2021/04/18 07:11:42;;;;;;;;;;;8.40;99.90;;;;;;5080330;28;19913;-71
2021/04/18 07:14:30;;;;;;;;;;;8.40;99.90;;;;;;5092231;28;19912;-71
2021/04/18 07:17:06;;;;;;;;;;;8.40;99.90;;;;;;5095393;28;19968;-71
2021/04/18 07:19:34;;;;;;;;;;;8.40;99.90;;;;;;5098204;28;19918;-71
2021/04/18 07:22:00;;;;;;;;;;;8.30;99.90;;;;;;5080421;28;19913;-71
2021/04/18 07:24:26;;;;;;;;;;;8.20;99.90;;;;;;5085021;28;19982;-71
2021/04/18 07:27:02;;;;;;;;;;;8.10;99.90;;;;;;5077116;28;20381;-70
2021/04/18 07:29:29;;;;;;;;;;;8.20;99.90;;;;;;5075482;28;20434;-70
2021/04/18 07:31:58;;;;;;;;;;;8.20;99.90;;;;;;5076497;28;21815;-71
2021/04/18 07:34:27;;;;;;;;;;;8.20;99.90;;;;;;5075913;28;19923;-70
2021/04/18 07:37:11;;;;;;;;;;;8.10;99.90;;;;;;5073326;28;19920;-70
2021/04/18 07:39:42;;;;;;;;;;;8.10;99.90;;;;;;5074751;28;20621;-70
2021/04/18 07:42:08;;;;;;;;;;;8.00;99.90;;;;;;5078810;28;20032;-70
2021/04/18 07:44:36;;;;;;;;;;;8.10;99.90;;;;;;5075535;28;20175;-71
2021/04/18 07:47:04;;;;;;;;;;;8.20;99.90;;;;;;5091862;27;19920;-71
2021/04/18 07:49:29;;;;;;;;;;;8.20;99.90;;;;;;5087842;28;20402;-70
2021/04/18 07:51:55;;;;;;;;;;;8.20;99.90;;;;;;5093975;28;19913;-70
2021/04/18 07:54:23;;;;;;;;;;;8.30;99.90;;;;;;5080499;28;19920;-70
2021/04/18 07:56:53;;;;;;;;;;;8.30;99.90;;;;;;5092044;28;19923;-70
2021/04/18 07:59:21;;;;;;;;;;;8.40;99.90;;;;;;5094472;28;20025;-70
2021/04/18 08:01:47;;;;;;;;;;;8.40;99.90;;;;;;5086425;28;19923;-71
2021/04/18 08:04:13;;;;;;;;;;;8.40;99.90;;;;;;5089099;28;19916;-71
2021/04/18 08:06:39;;;;;;;;;;;8.50;99.90;;;;;;5088344;28;19924;-70
2021/04/18 08:09:18;;;;;;;;;;;8.60;99.90;;;;;;5089966;28;19916;-70
2021/04/18 08:12:03;;;;;;;;;;;8.50;99.90;;;;;;5087642;28;19924;-70
2021/04/18 08:14:28;;;;;;;;;;;8.50;99.90;;;;;;5083449;28;19927;-70
2021/04/18 08:17:01;;;;;;;;;;;8.60;99.90;;;;;;5087835;28;19919;-70
2021/04/18 08:19:32;;;;;;;;;;;8.70;99.90;;;;;;5086909;28;20424;-70
2021/04/18 08:21:57;;;;;;;;;;;8.70;99.90;;;;;;5087267;28;19924;-70
2021/04/18 08:24:23;;;;;;;;;;;8.70;99.90;;;;;;5090663;28;19920;-69
2021/04/18 08:26:58;;;;;;;;;;;8.80;99.90;;;;;;5093532;28;19920;-69
2021/04/18 08:29:26;;;;;;;;;;;8.80;99.90;;;;;;5092240;28;19927;-69
2021/04/18 08:31:55;;;;;;;;;;;8.80;99.90;;;;;;5093128;28;19920;-69
2021/04/18 08:34:25;;;;;;;;;;;9.00;99.90;;;;;;5089981;28;19969;-69
2021/04/18 08:36:56;;;;;;;;;;;8.90;99.90;;;;;;5090271;28;19920;-70
2021/04/18 08:39:22;;;;;;;;;;;9.00;99.90;;;;;;5089523;28;20363;-69
2021/04/18 08:41:53;;;;;;;;;;;9.10;99.90;;;;;;5091877;28;19954;-69
2021/04/18 08:44:25;;;;;;;;;;;9.10;99.90;;;;;;5088148;28;19912;-69
2021/04/18 08:46:56;;;;;;;;;;;9.00;99.90;;;;;;5088830;28;19916;-69
2021/04/18 08:49:47;;;;;;;;;;;8.90;99.90;;;;;;5085310;28;19989;-70
2021/04/18 08:52:14;;;;;;;;;;;9.10;99.90;;;;;;5084326;28;19912;-71
2021/04/18 08:54:43;;;;;;;;;;;9.20;99.90;;;;;;5085242;28;19916;-70
2021/04/18 08:57:12;;;;;;;;;;;9.30;99.90;;;;;;4736241;27;10000543;-70
2021/04/18 08:59:43;;;;;;;;;;;9.20;99.90;;;;;;5090296;28;19926;-69
2021/04/18 09:02:12;;;;;;;;;;;9.20;99.90;;;;;;5085902;28;19935;-70
2021/04/18 09:04:38;;;;;;;;;;;9.00;99.90;;;;;;5082486;28;19916;-69
2021/04/18 09:07:07;;;;;;;;;;;8.90;99.90;;;;;;5112780;27;20276;-69
2021/04/18 09:09:35;;;;;;;;;;;8.80;99.90;;;;;;5082669;28;19931;-69
2021/04/18 09:12:03;;;;;;;;;;;8.80;99.90;;;;;;5085445;28;19920;-69
2021/04/18 09:14:32;;;;;;;;;;;8.70;99.90;;;;;;5083117;28;19923;-69
2021/04/18 09:17:16;;;;;;;;;;;8.60;99.90;;;;;;5085360;28;19923;-69
2021/04/18 09:19:45;;;;;;;;;;;8.60;99.90;;;;;;5084454;28;20367;-69
2021/04/18 09:22:12;;;;;;;;;;;8.50;99.90;;;;;;5081179;28;19912;-68
2021/04/18 09:24:42;;;;;;;;;;;8.40;99.90;;;;;;5082506;28;19981;-68
2021/04/18 09:27:09;;;;;;;;;;;8.40;99.90;;;;;;5085389;28;19916;-69
2021/04/18 09:29:38;;;;;;;;;;;8.40;99.90;;;;;;5085285;28;20043;-68
2021/04/18 09:32:07;;;;;;;;;;;8.30;99.90;;;;;;5118415;27;19959;-68
2021/04/18 09:34:35;;;;;;;;;;;8.30;99.90;;;;;;5082682;28;20428;-72
2021/04/18 09:37:06;;;;;;;;;;;8.30;99.90;;;;;;5085704;28;19924;-66
2021/04/18 09:39:31;;;;;;;;;;;8.30;99.90;;;;;;5085800;28;19947;-67
2021/04/18 09:42:02;;;;;;;;;;;8.30;99.90;;;;;;4739714;28;9999779;-67
2021/04/18 09:44:32;;;;;;;;;;;8.30;99.90;;;;;;5088903;28;20018;-67
2021/04/18 09:47:05;;;;;;;;;;;8.30;99.90;;;;;;5086811;28;20373;-66
2021/04/18 09:50:03;;;;;;;;;;;8.40;99.90;;;;;;5122526;27;20428;-66
2021/04/18 09:52:34;;;;;;;;;;;8.40;99.90;;;;;;5047851;28;19943;-66
2021/04/18 09:55:13;;;;;;;;;;;8.50;99.90;;;;;;5086686;28;19931;-69
2021/04/18 09:58:08;;;;;;;;;;;8.40;99.90;;;;;;5083949;28;19923;-67
2021/04/18 10:00:38;;;;;;;;;;;8.50;99.90;;;;;;5079734;28;19912;-68
2021/04/18 10:03:11;;;;;;;;;;;8.50;99.90;;;;;;5084125;28;20043;-66
2021/04/18 10:05:44;;;;;;;;;;;8.50;99.90;;;;;;5092494;28;19926;-67
2021/04/18 10:08:18;;;;;;;;;;;8.50;99.90;;;;;;5092621;28;19935;-66
2021/04/18 10:10:46;;;;;;;;;;;8.60;99.90;;;;;;5091637;28;19959;-67
2021/04/18 10:13:11;;;;;;;;;;;8.70;99.90;;;;;;5125322;27;19932;-66
2021/04/18 10:15:53;;;;;;;;;;;8.70;99.90;;;;;;5090120;28;19987;-66
2021/04/18 10:18:21;;;;;;;;;;;8.70;99.90;;;;;;5093747;28;19920;-72
2021/04/18 10:20:47;;;;;;;;;;;8.80;99.90;;;;;;5086041;28;19928;-72
2021/04/18 10:23:12;;;;;;;;;;;8.80;99.90;;;;;;5090239;28;19973;-72
2021/04/18 10:25:38;;;;;;;;;;;8.90;99.90;;;;;;5093542;28;19924;-72
2021/04/18 10:28:04;;;;;;;;;;;8.90;99.90;;;;;;5094102;28;19927;-72
2021/04/18 10:30:30;;;;;;;;;;;9.00;99.90;;;;;;5088172;27;19912;-74
2021/04/18 10:32:56;;;;;;;;;;;9.10;99.90;;;;;;5090966;28;19931;-72
2021/04/18 10:35:21;;;;;;;;;;;9.20;99.90;;;;;;5098460;28;19916;-72
2021/04/18 10:37:47;;;;;;;;;;;9.30;99.90;;;;;;5093044;28;19920;-72
2021/04/18 10:40:13;;;;;;;;;;;9.30;99.90;;;;;;5109521;27;19955;-72
2021/04/18 10:42:42;;;;;;;;;;;9.50;99.90;;;;;;5090837;28;19937;-72
2021/04/18 10:45:12;;;;;;;;;;;9.50;99.90;;;;;;5091073;28;19916;-70
2021/04/18 10:47:38;;;;;;;;;;;9.50;99.90;;;;;;5091315;28;20755;-70
2021/04/18 10:50:04;;;;;;;;;;;9.50;99.90;;;;;;5089810;28;19991;-71
2021/04/18 10:52:29;;;;;;;;;;;9.60;99.90;;;;;;5090610;28;19995;-70
2021/04/18 10:54:57;;;;;;;;;;;9.70;99.90;;;;;;5090341;28;20059;-71
2021/04/18 10:57:25;;;;;;;;;;;9.70;99.90;;;;;;5090523;28;20285;-71
2021/04/18 10:59:51;;;;;;;;;;;9.80;99.90;;;;;;5090529;28;19912;-72
2021/04/18 11:02:17;;;;;;;;;;;9.60;99.90;;;;;;5087074;28;19920;-71
2021/04/18 11:04:42;;;;;;;;;;;9.60;99.90;;;;;;5094466;28;19977;-71
2021/04/18 11:07:10;;;;;;;;;;;9.70;99.90;;;;;;5097608;27;20450;-71
2021/04/18 11:09:36;;;;;;;;;;;9.70;99.90;;;;;;5094711;28;19926;-71
2021/04/18 11:12:05;;;;;;;;;;;9.80;99.90;;;;;;5103460;27;20361;-71
2021/04/18 11:14:30;;;;;;;;;;;9.90;99.90;;;;;;5108215;27;19916;-71
2021/04/18 11:16:57;;;;;;;;;;;9.80;99.90;;;;;;5088622;28;19920;-71
2021/04/18 11:19:25;;;;;;;;;;;9.80;99.90;;;;;;5089187;28;19923;-71
2021/04/18 11:21:51;;;;;;;;;;;9.90;99.90;;;;;;5076317;28;20388;-72
2021/04/18 11:24:16;;;;;;;;;;;10.00;99.90;;;;;;5090040;28;19916;-71
2021/04/18 11:26:44;;;;;;;;;;;10.00;99.90;;;;;;5087345;28;19977;-71
2021/04/18 11:29:09;;;;;;;;;;;10.10;99.90;;;;;;5090479;28;19923;-71
2021/04/18 11:31:35;;;;;;;;;;;9.90;99.90;;;;;;5091241;28;21792;-72
2021/04/18 11:34:01;;;;;;;;;;;9.90;99.90;;;;;;5091439;28;19912;-71
2021/04/18 11:36:28;;;;;;;;;;;9.80;99.90;;;;;;5093670;28;19921;-71
2021/04/18 11:38:54;;;;;;;;;;;9.80;99.90;;;;;;5091753;28;19945;-72
2021/04/18 11:41:19;;;;;;;;;;;9.80;99.90;;;;;;5090081;28;20664;-71
2021/04/18 11:43:45;;;;;;;;;;;9.90;99.90;;;;;;5096879;28;19919;-71
2021/04/18 11:46:10;;;;;;;;;;;9.90;99.90;;;;;;5098185;28;19950;-71
2021/04/18 11:48:37;;;;;;;;;;;9.90;99.90;;;;;;5094404;28;19924;-71
2021/04/18 11:51:06;;;;;;;;;;;10.00;99.90;;;;;;5090364;28;20024;-71
2021/04/18 11:53:34;;;;;;;;;;;10.00;99.90;;;;;;5091686;28;19913;-71
2021/04/18 11:55:59;;;;;;;;;;;10.10;99.90;;;;;;5092162;27;19927;-71
2021/04/18 11:58:25;;;;;;;;;;;10.20;99.90;;;;;;5090777;28;20352;-71
2021/04/18 12:00:50;;;;;;;;;;;10.30;99.90;;;;;;5088567;28;19920;-71
2021/04/18 12:03:17;;;;;;;;;;;10.50;99.90;;;;;;5092154;28;20241;-71
2021/04/18 12:05:45;;;;;;;;;;;10.50;99.90;;;;;;5091912;28;20401;-71
2021/04/18 12:08:10;;;;;;;;;;;10.50;99.90;;;;;;5091386;28;19927;-71
2021/04/18 12:10:37;;;;;;;;;;;10.60;99.90;;;;;;5091226;28;19916;-71
2021/04/18 12:13:03;;;;;;;;;;;10.70;99.90;;;;;;5124511;27;19912;-71
2021/04/18 12:15:28;;;;;;;;;;;10.60;99.90;;;;;;5094546;28;20297;-72
2021/04/18 12:17:54;;;;;;;;;;;10.70;99.90;;;;;;5088321;28;20498;-72
2021/04/18 12:20:20;;;;;;;;;;;10.60;99.90;;;;;;5090025;28;20459;-72
2021/04/18 12:22:45;;;;;;;;;;;10.60;99.90;;;;;;5086203;28;19970;-72
2021/04/18 12:25:11;;;;;;;;;;;10.60;99.90;;;;;;5088752;28;20459;-71
2021/04/18 12:27:37;;;;;;;;;;;10.60;99.90;;;;;;5094831;28;20431;-71
2021/04/18 12:30:03;;;;;;;;;;;10.60;99.90;;;;;;5122241;27;20061;-71
2021/04/18 12:32:29;;;;;;;;;;;10.60;99.90;;;;;;4386212;27;10000845;-71
2021/04/18 12:34:54;;;;;;;;;;;10.70;99.90;;;;;;5085953;28;19916;-71
2021/04/18 12:37:22;;;;;;;;;;;10.90;99.90;;;;;;5087242;28;20411;-71
2021/04/18 12:39:47;;;;;;;;;;;10.90;99.90;;;;;;5086892;28;19912;-71
2021/04/18 12:42:13;;;;;;;;;;;10.90;99.90;;;;;;5085789;28;19947;-70
2021/04/18 12:44:40;;;;;;;;;;;11.20;99.90;;;;;;5085481;28;19923;-69
2021/04/18 12:47:09;;;;;;;;;;;11.30;99.90;;;;;;5120119;27;19962;-71
2021/04/18 12:49:40;;;;;;;;;;;11.50;99.90;;;;;;5083484;28;19924;-71
2021/04/18 12:52:05;;;;;;;;;;;11.50;95.60;;;;;;5082226;28;20018;-67
2021/04/18 12:54:31;;;;;;;;;;;11.60;99.90;;;;;;5093334;28;20516;-68
2021/04/18 12:56:58;;;;;;;;;;;11.50;99.80;;;;;;5082419;28;19920;-71
2021/04/18 12:59:26;;;;;;;;;;;11.50;99.30;;;;;;5087130;28;20069;-70
2021/04/18 13:01:56;;;;;;;;;;;11.60;99.90;;;;;;5087575;28;20656;-71
2021/04/18 13:04:24;;;;;;;;;;;11.60;98.90;;;;;;5102797;27;19916;-72
2021/04/18 13:06:51;;;;;;;;;;;11.90;99.90;;;;;;5077988;28;19921;-71
2021/04/18 13:09:17;;;;;;;;;;;12.10;99.60;;;;;;5085907;28;19939;-69
2021/04/18 13:11:44;;;;;;;;;;;12.40;97.50;;;;;;5089536;28;20274;-71
2021/04/18 13:14:10;;;;;;;;;;;12.80;98.00;;;;;;5090457;28;19923;-71
2021/04/18 13:16:36;;;;;;;;;;;13.10;91.50;;;;;;5087941;28;19916;-71
2021/04/18 13:19:02;;;;;;;;;;;13.10;86.30;;;;;;5088816;28;20541;-70
2021/04/18 13:21:28;;;;;;;;;;;13.10;86.20;;;;;;5090579;28;19916;-72
2021/04/18 13:23:55;;;;;;;;;;;12.80;88.80;;;;;;5089930;28;19928;-72
2021/04/18 13:26:22;;;;;;;;;;;13.00;91.40;;;;;;5085869;28;19929;-71
2021/04/18 13:28:47;;;;;;;;;;;13.10;93.30;;;;;;5090356;28;19931;-72
2021/04/18 13:31:13;;;;;;;;;;;13.30;90.90;;;;;;5103569;27;19916;-71
2021/04/18 13:33:38;;;;;;;;;;;13.10;85.60;;;;;;5091121;28;19931;-71
2021/04/18 13:36:08;;;;;;;;;;;13.00;84.90;;;;;;5088681;28;19923;-72
2021/04/18 13:38:33;;;;;;;;;;;13.10;85.80;;;;;;5087947;28;19967;-72
2021/04/18 13:40:59;;;;;;;;;;;13.20;87.40;;;;;;5085664;28;20005;-72
2021/04/18 13:43:24;;;;;;;;;;;13.10;86.20;;;;;;5087163;28;19959;-72
2021/04/18 13:45:52;;;;;;;;;;;12.90;84.80;;;;;;5084412;28;19920;-71
2021/04/18 13:48:17;;;;;;;;;;;12.90;90.60;;;;;;5087562;28;19927;-71
2021/04/18 13:50:43;;;;;;;;;;;12.90;87.00;;;;;;5084454;28;19920;-71
2021/04/18 13:53:10;;;;;;;;;;;12.80;88.70;;;;;;5085541;28;20331;-72
2021/04/18 13:55:36;;;;;;;;;;;12.50;87.20;;;;;;5087467;28;19921;-72
2021/04/18 13:58:02;;;;;;;;;;;12.10;84.50;;;;;;5086321;28;19912;-71
2021/04/18 14:00:27;;;;;;;;;;;12.20;91.90;;;;;;5087313;28;20021;-71
2021/04/18 14:02:54;;;;;;;;;;;12.10;91.00;;;;;;4727207;27;10000169;-72
2021/04/18 14:05:22;;;;;;;;;;;12.20;91.80;;;;;;5087780;28;19996;-70
2021/04/18 14:07:48;;;;;;;;;;;12.30;93.90;;;;;;5086355;28;19916;-71
2021/04/18 14:10:14;;;;;;;;;;;12.70;99.90;;;;;;5084207;28;19970;-71
2021/04/18 14:12:42;;;;;;;;;;;12.80;91.90;;;;;;5080797;28;19940;-71
2021/04/18 14:15:08;;;;;;;;;;;12.90;92.10;;;;;;5086299;28;19920;-71
2021/04/18 14:17:34;;;;;;;;;;;12.80;87.90;;;;;;5085923;28;20041;-71
2021/04/18 14:20:00;;;;;;;;;;;12.70;90.20;;;;;;5089286;28;19974;-71
2021/04/18 14:22:28;;;;;;;;;;;12.60;88.10;;;;;;5083507;28;20432;-71
2021/04/18 14:24:55;;;;;;;;;;;12.40;89.20;;;;;;5090042;28;19927;-71
2021/04/18 14:27:23;;;;;;;;;;;12.20;90.80;;;;;;5076681;28;19962;-70